• Join FlightAware (Why Join?)
  • Login
  • US Flag 
11:07PM EDT


 

Airport Tracker/Info


-or-


 

Live Flight TrackerFlight Track Log ✈ DAL1283 ✈ 05-Oct-2013 ✈ KDTW - KSFO

Flight Track Log - Related Links

Times and Time Zones

All times are in EDT time to prevent confusion due to time zone crossing. See the DAL1283 flight status page for this flight to view local times or setup timezone preferences in your user account.

Time Position Orientation Groundspeed Altitude Reporting Facility
EDT Latitude Longitude Course Direction KTS MPH feet Rate Location/Type
12:10PM 42.1994 -83.3717 275° West 174 200 1,200  Level Cleveland Center
12:10PM 42.1881 -83.3842 219° Southwest 177 204 1,900 1,200 Climbing Cleveland Center
12:11PM 42.1514 -83.4494 233° Southwest 257 296 2,800 1,200 Climbing Cleveland Center
12:12PM 42.1397 -83.4694 232° Southwest 248 285 3,500 2,820 Climbing Cleveland Center
12:12PM 42.1525 -83.5397 284° West 272 313 5,700 2,820 Climbing Cleveland Center
12:13PM 42.2384 -83.8236 292° West  Level Estimated
12:13PM 42.1628 -83.5656 298° West 268 308 6,400  Level Cleveland Center
12:13PM 42.1917 -83.6300 301° West 276 318 8,200 2,400 Climbing Cleveland Center
12:14PM 42.2467 -83.9804 270° West  Level Estimated
12:14PM 42.2019 -83.6553 299° West 277 319 8,900  Level Cleveland Center
12:14PM 42.2319 -83.7261 300° West 290 334 10,200 1,500 Climbing Cleveland Center
12:15PM 42.2547 -84.1372 275° West  Level Estimated
12:15PM 42.2422 -83.7508 299° West 288 331 10,500  Level Cleveland Center
12:16PM 42.2872 -83.8581 300° West 326 375 12,000 1,620 Climbing Cleveland Center
12:17PM 42.3344 -83.9717 299° West 345 397 13,900 2,160 Climbing Cleveland Center
12:18PM 42.3819 -84.0833 300° West 343 395 16,500 2,040 Climbing Cleveland Center
12:19PM 42.4272 -84.1972 298° West 345 397 18,100 1,260 Climbing Cleveland Center
12:20PM 42.4317 -84.3294 273° West 353 406 19,100 1,500 Climbing Cleveland Center
12:21PM 42.4347 -84.4683 272° West 368 423 21,200 1,980 Climbing Cleveland Center
12:22PM 42.4397 -84.6281 272° West 356 410 23,200 1,560 Climbing Cleveland Center
12:23PM 42.4433 -84.7525 272° West 362 417 24,400 1,260 Climbing Cleveland Center
12:24PM 42.4467 -84.8922 272° West 370 426 25,800 1,260 Climbing Cleveland Center
12:25PM 42.4492 -85.0314 271° West 371 427 27,000 1,200 Climbing Cleveland Center
12:26PM 42.4364 -85.1989 264° West 374 430 28,300 1,020 Climbing Cleveland Center
12:27PM 42.4197 -85.3383 261° West 376 433 29,200 720 Climbing Cleveland Center
12:28PM 42.4011 -85.4797 260° West 380 437 29,900 540 Climbing Cleveland Center
12:29PM 42.3817 -85.6247 260° West 391 450 30,400 480 Climbing Cleveland Center
12:30PM 42.3617 -85.7742 260° West 401 461 31,000 840 Climbing Cleveland Center
12:31PM 42.3394 -85.9222 259° West 401 461 32,200 900 Climbing Cleveland Center
12:32PM 42.3181 -86.0789 260° West 394 453 32,900 540 Climbing Cleveland Center
12:34PM 42.2897 -86.2847 260° West 400 460 33,600 360 Climbing Chicago Center
12:35PM 42.2706 -86.4317 260° West 402 463 33,900 180 Climbing Chicago Center
12:36PM 42.2533 -86.5825 261° West 407 468 34,000  Climbing Chicago Center
12:37PM 42.2531 -86.7322 270° West 408 470 34,000  Level Chicago Center
12:38PM 42.2631 -86.9189 274° West 417 480 34,000  Level Chicago Center
12:39PM 42.2692 -87.0706 273° West 410 472 34,000  Level Chicago Center
12:40PM 42.2758 -87.2206 273° West 404 465 34,000  Level Chicago Center
12:41PM 42.2831 -87.3719 274° West 407 468 34,000  Level Chicago Center
12:42PM 42.2900 -87.5225 274° West 407 468 34,000  Level Chicago Center
12:43PM 42.2978 -87.7033 273° West 406 467 34,000  Level Chicago Center
12:44PM 42.3047 -87.8525 274° West 403 464 34,000  Level Chicago Center
12:45PM 42.3106 -88.0036 273° West 405 466 34,000  Level Chicago Center
12:46PM 42.3169 -88.1533 273° West 403 464 34,000  Level Chicago Center
12:47PM 42.3222 -88.3008 273° West 399 459 34,000  Level Chicago Center
12:48PM 42.3292 -88.4803 273° West 401 461 34,000  Level Chicago Center
12:49PM 42.3328 -88.6050 272° West 398 458 34,000  Level Chicago Center
12:50PM 42.3397 -88.7839 273° West 396 456 34,000  Level Chicago Center
12:51PM 42.3442 -88.9333 272° West 398 458 34,000  Level Chicago Center
12:52PM 42.3489 -89.0839 272° West 400 460 34,000  Level Chicago Center
12:53PM 42.3536 -89.2369 272° West 406 467 34,000  Level Chicago Center
12:54PM 42.3589 -89.3894 273° West 405 466 34,000  Level Chicago Center
12:55PM 42.3633 -89.5428 272° West 409 471 34,000  Level Chicago Center
12:56PM 42.3661 -89.6964 271° West 410 472 34,000  Level Chicago Center
12:57PM 42.3711 -89.8808 272° West 410 472 34,000  Level Chicago Center
12:58PM 42.3750 -90.0222 272° West 406 467 34,000  Level Chicago Center
12:59PM 42.3783 -90.1711 272° West 402 463 34,000  Level Chicago Center
01:00PM 42.3808 -90.3211 271° West 402 463 34,000  Level Chicago Center
01:01PM 42.3850 -90.4719 272° West 404 465 34,000  Level Chicago Center
01:02PM 42.3889 -90.6533 272° West 405 466 34,000  Level Chicago Center
01:03PM 42.3925 -90.8050 272° West 406 467 34,000  Level Chicago Center
01:04PM 42.3933 -90.9572 270° West 407 468 34,000  Level Chicago Center
01:05PM 42.3956 -91.1094 271° West 408 470 34,000  Level Chicago Center
01:06PM 42.3969 -91.2639 271° West 410 472 34,000  Level Chicago Center
01:07PM 42.3989 -91.4219 271° West 417 480 34,000  Level Chicago Center
01:09PM 42.4000 -91.5792 271° West 418 481 34,100  Climbing Chicago Center
01:10PM 42.4022 -91.7678 271° West 419 482 34,000 -60 Descending Chicago Center
01:11PM 42.4028 -91.9236 270° West 417 480 34,000  Level Chicago Center
01:12PM 42.4031 -92.0775 270° West 414 476 34,000  Level Chicago Center
01:13PM 42.4036 -92.2306 270° West 411 473 34,000  Level Chicago Center
01:14PM 42.4044 -92.3828 270° West 409 471 34,000  Level Chicago Center
01:15PM 42.4047 -92.5336 270° West 405 466 34,000  Level Chicago Center
01:16PM 42.4047 -92.6856 270° West 405 466 34,000  Level Chicago Center
01:17PM 42.4050 -92.8669 270° West 404 465 34,000  Level Chicago Center
01:18PM 42.4047 -93.0181 270° West 405 466 34,000  Level Chicago Center
01:19PM 42.4033 -93.1700 269° West 407 468 34,000  Level Chicago Center
01:19PM 42.4042 -93.2603 271° West 406 467 34,000  Level Minneapolis Center
01:20PM 42.4031 -93.4111 269° West 405 466 34,000  Level Minneapolis Center
01:21PM 42.4031 -93.5628 270° West 407 468 34,000  Level Minneapolis Center
01:22PM 42.4011 -93.7464 269° West 408 470 34,000  Level Minneapolis Center
01:24PM 42.3981 -93.9003 269° West 414 476 34,000  Level Minneapolis Center
01:25PM 42.3967 -94.0544 269° West 411 473 34,000  Level Minneapolis Center
01:26PM 42.3950 -94.2061 269° West 407 468 34,000  Level Minneapolis Center
01:27PM 42.3944 -94.3764 270° West 403 464 34,000  Level Minneapolis Center
01:28PM 42.3919 -94.5264 269° West 400 460 34,000  Level Minneapolis Center
01:29PM 42.3883 -94.6736 268° West 394 453 34,000  Level Minneapolis Center
01:30PM 42.3858 -94.8225 269° West 396 456 34,000  Level Minneapolis Center
01:31PM 42.3833 -94.9728 269° West 399 459 34,000  Level Minneapolis Center
01:32PM 42.3797 -95.1233 268° West 400 460 34,000  Level Minneapolis Center
01:33PM 42.3758 -95.3050 268° West 404 465 34,000  Level Minneapolis Center
01:34PM 42.3717 -95.4525 268° West 397 457 34,000  Level Minneapolis Center
01:35PM 42.3683 -95.6075 268° West 406 467 34,000  Level Minneapolis Center
01:36PM 42.3644 -95.7594 268° West 407 468 34,000  Level Minneapolis Center
01:37PM 42.3600 -95.9111 268° West 406 467 34,000  Level Minneapolis Center
01:38PM 42.3556 -96.0606 268° West 401 461 34,000  Level Minneapolis Center
01:39PM 42.3508 -96.2394 268° West 399 459 34,000  Level Minneapolis Center
01:40PM 42.3458 -96.3878 267° West 398 458 34,000  Level Minneapolis Center
01:41PM 42.3403 -96.5369 267° West 398 458 34,000  Level Minneapolis Center
01:42PM 42.3356 -96.6878 268° West 402 463 34,000  Level Minneapolis Center
01:43PM 42.3292 -96.8375 267° West 400 460 34,000  Level Minneapolis Center
01:44PM 42.3236 -96.9867 267° West 401 461 34,000  Level Minneapolis Center
01:45PM 42.3186 -97.1383 267° West 404 465 34,000  Level Minneapolis Center
01:46PM 42.3108 -97.3244 267° West 412 474 34,000  Level Minneapolis Center
01:47PM 42.3050 -97.4783 267° West 412 474 34,000  Level Minneapolis Center
01:48PM 42.2978 -97.6336 266° West 414 476 34,000  Level Minneapolis Center
01:49PM 42.2917 -97.7886 267° West 414 476 34,000  Level Minneapolis Center
01:50PM 42.2836 -97.9375 266° West 416 479 34,000  Level Minneapolis Center
01:51PM 42.2756 -98.1294 267° West 424 488 34,100  Climbing Minneapolis Center
01:52PM 42.2672 -98.2900 266° West 428 493 34,000 -60 Descending Minneapolis Center
01:53PM 42.2600 -98.4489 267° West 426 490 34,000  Level Minneapolis Center
01:54PM 42.2522 -98.6072 266° West 425 489 34,000  Level Minneapolis Center
01:55PM 42.2439 -98.7603 266° West 415 478 34,000  Level Minneapolis Center
01:56PM 42.2361 -98.9167 266° West 417 480 34,000  Level Minneapolis Center
01:57PM 42.2272 -99.0717 266° West 416 479 34,000  Level Minneapolis Center
01:59PM 42.2164 -99.2578 266° West 416 479 34,000 -60 Level Minneapolis Center
02:00PM 42.2072 -99.4117 265° West 414 476 33,900  Descending Minneapolis Center
02:01PM 42.1983 -99.5681 266° West 417 480 34,000  Climbing Minneapolis Center
02:02PM 42.1883 -99.7258 265° West 421 484 34,000  Level Minneapolis Center
02:03PM 42.1775 -99.9172 266° West 425 489 34,000  Level Minneapolis Center
02:04PM 42.1661 -100.0831 265° West 436 502 34,000  Level Minneapolis Center
02:05PM 42.1544 -100.2478 265° West 441 507 34,100  Climbing Minneapolis Center
02:06PM 42.1439 -100.4150 265° West 445 512 34,000 -60 Descending Minneapolis Center
02:07PM 42.1322 -100.5794 265° West 443 510 34,000 -660 Level Minneapolis Center
02:08PM 42.1203 -100.7422 264° West 440 506 32,700 -960 Descending Minneapolis Center
02:09PM 42.1075 -100.9333 265° West 417 480 32,000 -360 Descending Denver Center
02:10PM 42.0958 -101.0872 264° West 428 493 32,000  Level Denver Center
02:11PM 42.0836 -101.2611 265° West 420 483 32,000  Level Denver Center
02:12PM 42.0722 -101.4122 264° West 424 488 32,000  Level Denver Center
02:13PM 42.0575 -101.5892 264° West 428 493 32,000  Level Denver Center
02:14PM 42.0456 -101.7428 264° West 432 497 32,000  Level Denver Center
02:15PM 42.0319 -101.9197 264° West 427 491 32,000  Level Denver Center
02:16PM 42.0189 -102.0750 264° West 436 502 32,000  Level Denver Center
02:17PM 42.0036 -102.2547 264° West 441 507 32,000  Level Denver Center
02:18PM 41.9892 -102.4119 263° West 444 511 32,100  Climbing Denver Center
02:19PM 41.9775 -102.5672 264° West 436 502 32,000 -60 Descending Denver Center
02:20PM 41.9611 -102.7500 263° West 440 506 32,000  Level Denver Center
02:21PM 41.9467 -102.9058 263° West 440 506 32,100  Climbing Denver Center
02:22PM 41.9306 -103.0858 263° West 435 501 32,000 -60 Descending Denver Center
02:23PM 41.9161 -103.2411 263° West 436 502 32,000  Level Denver Center
02:24PM 41.8997 -103.4181 263° West 431 496 32,000  Level Denver Center
02:25PM 41.8728 -103.5728 257° West 439 505 32,000  Level Denver Center
02:26PM 41.8353 -103.7281 252° West 451 519 32,000  Level Denver Center
02:28PM 41.7911 -103.9092 252° West 457 526 32,000  Level Denver Center
02:29PM 41.7542 -104.0619 252° West 453 521 32,000  Level Denver Center
02:30PM 41.7108 -104.2411 252° West 451 519 32,000  Level Denver Center
02:31PM 41.6739 -104.3939 252° West 449 517 32,000  Level Denver Center
02:32PM 41.6353 -104.5472 251° West 453 521 32,000  Level Denver Center
02:33PM 41.5906 -104.7278 252° West 457 526 32,000  Level Denver Center
02:34PM 41.5519 -104.8836 252° West 460 529 32,000  Level Denver Center
02:35PM 41.5075 -105.0614 252° West 454 522 32,000  Level Denver Center
02:36PM 41.4678 -105.2142 251° West 454 522 32,000  Level Denver Center
02:37PM 41.4294 -105.3656 251° West 452 520 32,000 -60 Level Denver Center
02:38PM 41.3833 -105.5450 251° West 456 525 31,900  Descending Denver Center
02:39PM 41.3422 -105.7031 251° West 467 537 32,000 60 Climbing Denver Center
02:40PM 41.2950 -105.8928 252° West 479 551 32,100  Climbing Denver Center
02:41PM 41.2544 -106.0547 252° West 483 556 32,100 -60 Level Denver Center
02:42PM 41.2103 -106.2297 252° West 484 557 32,000 -60 Descending Denver Center
02:43PM 41.1697 -106.3908 252° West 483 556 32,000  Level Denver Center
02:44PM 41.1208 -106.5825 251° West 490 564 32,000  Level Denver Center
02:45PM 41.0783 -106.7456 251° West 490 564 32,000  Level Denver Center
02:46PM 41.0297 -106.9381 252° West 493 567 32,000  Level Denver Center
02:47PM 40.9881 -107.1022 251° West 493 567 32,000  Level Denver Center
02:48PM 40.9381 -107.2942 251° West 494 568 32,000  Level Denver Center
02:49PM 40.8944 -107.4575 251° West 494 568 32,000  Level Denver Center
02:50PM 40.8519 -107.6206 251° West 491 565 32,000  Level Denver Center
02:51PM 40.8011 -107.8100 251° West 490 564 32,000  Level Denver Center
02:52PM 40.7569 -107.9725 250° West 491 565 32,000  Level Denver Center
02:53PM 40.7097 -108.1461 250° West 490 564 32,000  Level Denver Center
02:54PM 40.6586 -108.3331 250° West 489 563 32,000  Level Denver Center
02:55PM 40.6142 -108.4956 250° West 493 567 32,000  Level Denver Center
02:56PM 40.5864 -108.5936 250° West 490 564 32,000  Level Salt Lake Center
02:57PM 40.5350 -108.7819 250° West 489 563 32,000  Level Salt Lake Center
02:58PM 40.4889 -108.9475 250° West 486 559 32,000  Level Salt Lake Center
02:59PM 40.4428 -109.1075 249° West 491 565 32,000  Level Salt Lake Center
03:00PM 40.3903 -109.2942 250° West 490 564 32,000  Level Salt Lake Center
03:01PM 40.3442 -109.4536 249° West 491 565 32,000  Level Salt Lake Center
03:02PM 40.2917 -109.6406 250° West 490 564 32,000  Level Salt Lake Center
03:03PM 40.2525 -109.8028 252° West 492 566 32,000  Level Salt Lake Center
03:04PM 40.2083 -109.9922 253° West 490 564 32,000  Level Salt Lake Center
03:05PM 40.1692 -110.1519 252° West 486 559 32,000  Level Salt Lake Center
03:06PM 40.1308 -110.3108 253° West 483 556 32,000  Level Salt Lake Center
03:07PM 40.0864 -110.4975 253° West 483 556 32,000  Level Salt Lake Center
03:08PM 40.0461 -110.6575 252° West 484 557 32,000  Level Salt Lake Center
03:09PM 39.9981 -110.8444 252° West 486 559 32,000  Level Salt Lake Center
03:10PM 39.9583 -111.0036 252° West 484 557 32,000  Level Salt Lake Center
03:11PM 39.9117 -111.1903 252° West 485 558 32,000  Level Salt Lake Center
03:12PM 39.8697 -111.3497 251° West 488 562 32,000  Level Salt Lake Center
03:13PM 39.8281 -111.5089 251° West 487 560 32,000  Level Salt Lake Center
03:14PM 39.7836 -111.6811 251° West 485 558 32,000  Level Salt Lake Center
03:15PM 39.7408 -111.8478 252° West 486 559 32,000  Level Salt Lake Center
03:16PM 39.6975 -112.0131 251° West 484 557 32,000  Level Salt Lake Center
03:17PM 39.6453 -112.2128 251° West 484 557 32,000  Level Salt Lake Center
03:18PM 39.6019 -112.3781 251° West 485 558 32,000  Level Salt Lake Center
03:19PM 39.5589 -112.5419 251° West 482 555 32,000  Level Salt Lake Center
03:20PM 39.5147 -112.7014 250° West 481 554 32,000  Level Salt Lake Center
03:22PM 39.4714 -112.8597 251° West 473 544 32,000  Level Salt Lake Center
03:23PM 39.4275 -113.0203 251° West 475 547 32,000  Level Salt Lake Center
03:24PM 39.3736 -113.2167 251° West 482 555 32,000  Level Salt Lake Center
03:25PM 39.3286 -113.3775 250° West 481 554 32,000  Level Salt Lake Center
03:26PM 39.2844 -113.5383 251° West 478 550 32,000  Level Salt Lake Center
03:27PM 39.2397 -113.6983 250° West 478 550 32,000  Level Salt Lake Center
03:28PM 39.1950 -113.8578 250° West 476 548 32,000  Level Salt Lake Center
03:29PM 39.1494 -114.0167 250° West 475 547 32,000  Level Salt Lake Center
03:30PM 39.1036 -114.1764 250° West 477 549 32,000  Level Salt Lake Center
03:31PM 39.0508 -114.3614 250° West 468 539 32,000  Level Salt Lake Center
03:32PM 39.0081 -114.5106 250° West 454 522 32,000  Level Salt Lake Center
03:33PM 38.9644 -114.6625 250° West 454 522 32,000  Level Salt Lake Center
03:34PM 38.9183 -114.8139 249° West 456 525 32,000  Level Salt Lake Center
03:35PM 38.8761 -114.9633 250° West 451 519 32,000  Level Salt Lake Center
03:36PM 38.8317 -115.1119 249° West 448 516 32,000  Level Salt Lake Center
03:37PM 38.7772 -115.2919 249° West 452 520 32,000  Level Salt Lake Center
03:38PM 38.7375 -115.4211 249° West 455 524 32,000  Level Salt Lake Center
03:39PM 38.6842 -115.6003 249° West 450 518 32,000  Level Salt Lake Center
03:40PM 38.6389 -115.7508 249° West 451 519 32,000  Level Salt Lake Center
03:41PM 38.5925 -115.9006 248° West 453 521 32,000  Level Salt Lake Center
03:42PM 38.5481 -116.0467 249° West 443 510 32,000  Level Salt Lake Center
03:43PM 38.5019 -116.1953 248° West 449 517 32,000  Level Salt Lake Center
03:44PM 38.4578 -116.3406 249° West 444 511 32,000  Level Salt Lake Center
03:45PM 38.4117 -116.4856 248° West 441 507 32,000  Level Salt Lake Center
03:46PM 38.3578 -116.6594 248° West 440 506 32,000  Level Salt Lake Center
03:47PM 38.3122 -116.8044 248° West 441 507 32,000  Level Salt Lake Center
03:48PM 38.2675 -116.9486 248° West 440 506 32,000  Level Salt Lake Center
03:49PM 38.2219 -117.0925 248° West 440 506 32,000  Level Salt Lake Center
03:50PM 38.1775 -117.2278 247° West 447 514 32,000  Level Oakland Center
03:51PM 38.1319 -117.3722 248° West 444 511 32,000  Level Oakland Center
03:52PM 38.0867 -117.5144 248° West 439 505 32,000  Level Oakland Center
03:53PM 38.0397 -117.6586 248° West 441 507 32,000  Level Oakland Center
03:54PM 37.9958 -117.8331 252° West 432 497 32,000  Level Oakland Center
03:55PM 37.9803 -117.9828 263° West 429 494 32,000  Level Oakland Center
03:56PM 37.9644 -118.1347 263° West 432 497 32,000  Level Oakland Center
03:57PM 37.9483 -118.2903 263° West 442 509 32,000  Level Oakland Center
03:58PM 37.9308 -118.4450 262° West 444 511 32,000  Level Oakland Center
03:59PM 37.9136 -118.6000 262° West 443 510 32,000  Level Oakland Center
04:00PM 37.8953 -118.7547 262° West 445 512 32,000  Level Oakland Center
04:01PM 37.8808 -118.9114 263° West 447 514 32,000  Level Oakland Center
04:03PM 37.8606 -119.0769 261° West 444 511 32,000  Level Oakland Center
04:04PM 37.8411 -119.2331 261° West 449 517 32,000  Level Oakland Center
04:05PM 37.8231 -119.3897 262° West 450 518 32,000  Level Oakland Center
04:06PM 37.8042 -119.5525 262° West 466 536 32,000  Level Oakland Center
04:07PM 37.7853 -119.7156 262° West 469 540 32,000  Level Oakland Center
04:08PM 37.7650 -119.8775 261° West 466 536 32,000 -240 Level Oakland Center
04:09PM 37.7453 -120.0406 261° West 468 539 31,600 -780 Descending Oakland Center
04:10PM 37.7214 -120.2322 261° West 461 531 30,500 -1,080 Descending Oakland Center
04:11PM 37.7006 -120.3936 261° West 463 533 29,500 -960 Descending Oakland Center
04:12PM 37.6806 -120.5531 261° West 460 529 28,600 -1,380 Descending Oakland Center
04:13PM 37.6608 -120.7072 261° West 448 516 26,700 -2,160 Descending Oakland Center
04:14PM 37.6411 -120.8594 261° West 441 507 24,200 -2,460 Descending Oakland Center
04:15PM 37.6219 -121.0036 261° West 428 493 21,700 -2,460 Descending Oakland Center
04:16PM 37.6042 -121.1606 262° West 415 478 19,200 -2,520 Descending Oakland Center
04:17PM 37.5889 -121.2953 262° West 395 455 16,600 -3,120 Descending Oakland Center
04:18PM 37.5742 -121.4236 262° West 376 433 12,900 -2,820 Descending Oakland Center
04:19PM 37.5561 -121.5486 260° West 364 419 10,900 -1,260 Descending Oakland Center
04:20PM 37.5333 -121.6667 256° West 309 356 10,300 -1,080 Descending Northern Cal TRACON
04:21PM 37.5167 -121.7667 258° West 302 348 8,700 -1,200 Descending Northern Cal TRACON
04:22PM 37.5000 -121.8667 258° West 277 319 8,000 -960 Descending Northern Cal TRACON
04:23PM 37.5000 -121.9500 270° West 251 289 6,800 -1,080 Descending Northern Cal TRACON
04:24PM 37.5000 -122.0333 270° West 214 246 5,900 -1,320 Descending Northern Cal TRACON
04:25PM 37.5333 -122.1000 302° West 205 236 4,200 -1,560 Descending Northern Cal TRACON
04:26PM 37.5500 -122.1500 293° West 200 230 2,800 -1,260 Descending Northern Cal TRACON
04:27PM 37.5667 -122.2167 288° West 203 234 1,700 -900 Descending Northern Cal TRACON
04:28PM 37.5833 -122.2833 288° West 157 181 1,100 -600 Descending Northern Cal TRACON
04:29PM 37.6000 -122.3167 302° West 148 170 600 -420 Descending Northern Cal TRACON
04:30PM 37.6194 -122.3725 294° West 151 174 200 -360 Descending Oakland Center